Time;durP1;ratioP1;P1;durP2;ratioP2;P2;SDS_P1;SDS_P2;PMS_P1;PMS_P2;Temp;Humidity;BMP_temperature;BMP_pressure;BME280_temperature;BME280_humidity;BME280_pressure;Samples;Min_cycle;Max_cycle;Signal;HPM_P1;HPM_P2
2022/01/24 00:00:52;;;;;;;15.18;9.25;;;6.20;99.90;;;;;;5012518;28;20026;-60
2022/01/24 00:03:18;;;;;;;13.88;9.18;;;6.20;99.90;;;;;;5012605;28;20022;-59
2022/01/24 00:05:44;;;;;;;19.77;9.55;;;6.20;99.90;;;;;;5012804;28;20022;-59
2022/01/24 00:08:10;;;;;;;12.85;8.75;;;6.20;99.90;;;;;;5013302;28;20030;-58
2022/01/24 00:10:38;;;;;;;16.50;9.30;;;6.20;99.90;;;;;;5013112;28;20041;-59
2022/01/24 00:18:14;;;;;;;13.55;8.85;;;6.20;99.90;;;;;;5012522;28;20089;-60
2022/01/24 00:26:44;;;;;;;15.35;9.48;;;6.10;99.90;;;;;;5012303;28;20083;-58
2022/01/24 00:29:05;;;;;;;13.50;8.63;;;6.10;99.90;;;;;;5013152;28;20571;-57
2022/01/24 00:31:30;;;;;;;13.77;9.13;;;6.00;99.90;;;;;;5012552;28;20121;-62
2022/01/24 00:33:56;;;;;;;14.43;9.45;;;6.00;99.90;;;;;;5020205;28;20117;-59
2022/01/24 00:36:22;;;;;;;13.93;9.38;;;6.00;99.90;;;;;;5012456;28;20084;-59
2022/01/24 00:38:47;;;;;;;15.82;8.95;;;6.10;99.90;;;;;;5011610;28;20510;-61
2022/01/24 00:41:17;;;;;;;15.32;8.80;;;6.10;99.90;;;;;;5011843;28;20088;-62
2022/01/24 00:44:10;;;;;;;12.73;9.07;;;6.00;99.90;;;;;;5011265;28;20518;-57
2022/01/24 00:46:39;;;;;;;15.38;9.48;;;6.00;99.90;;;;;;5010939;28;20030;-61
2022/01/24 00:57:03;;;;;;;13.93;9.50;;;5.90;99.90;;;;;;5017050;28;20091;-61
2022/01/24 00:59:29;;;;;;;16.10;9.85;;;6.00;99.90;;;;;;5022978;28;20037;-58
2022/01/24 01:01:56;;;;;;;14.63;9.88;;;6.00;99.90;;;;;;5018196;28;20038;-59
2022/01/24 01:04:27;;;;;;;13.73;9.23;;;6.00;99.90;;;;;;5021412;28;20029;-57
2022/01/24 01:06:54;;;;;;;14.95;9.57;;;6.00;99.90;;;;;;5024841;28;20037;-57
2022/01/24 01:20:25;;;;;;;14.00;9.43;;;6.00;99.90;;;;;;5029470;28;20056;-60
2022/01/24 01:22:51;;;;;;;14.38;9.05;;;6.00;99.90;;;;;;5023670;28;20087;-60
2022/01/24 01:25:17;;;;;;;17.75;9.65;;;6.00;99.90;;;;;;5022589;28;20034;-60
2022/01/24 01:27:45;;;;;;;18.50;10.82;;;5.90;99.90;;;;;;5022293;28;20037;-60
2022/01/24 01:30:21;;;;;;;13.63;9.32;;;5.90;99.90;;;;;;5027109;28;20037;-60
2022/01/24 01:33:01;;;;;;;17.27;10.07;;;6.00;99.90;;;;;;5021675;28;20038;-60
2022/01/24 01:56:59;;;;;;;21.27;11.57;;;5.80;99.90;;;;;;4971232;28;20031;-60
2022/01/24 01:59:25;;;;;;;23.10;11.60;;;5.80;99.90;;;;;;5012177;28;20518;-62
2022/01/24 02:01:51;;;;;;;21.42;11.38;;;5.80;99.90;;;;;;5020067;28;20136;-60
2022/01/24 02:04:16;;;;;;;20.67;11.40;;;5.80;99.90;;;;;;5021789;28;20061;-62
2022/01/24 02:06:43;;;;;;;18.75;11.00;;;5.80;99.90;;;;;;5021273;28;20025;-59
2022/01/24 02:09:10;;;;;;;19.90;11.77;;;5.90;99.90;;;;;;5021347;28;20417;-62
2022/01/24 02:11:36;;;;;;;20.80;11.38;;;5.80;99.90;;;;;;5021609;28;20504;-61
2022/01/24 02:14:06;;;;;;;21.65;12.10;;;5.90;99.90;;;;;;5020190;28;20120;-62
2022/01/24 02:16:59;;;;;;;17.88;12.25;;;5.90;99.90;;;;;;5014736;28;20059;-59
2022/01/24 02:22:04;;;;;;;21.20;11.93;;;5.80;99.90;;;;;;5022368;28;20025;-62
2022/01/24 02:24:40;;;;;;;21.15;12.48;;;5.80;99.90;;;;;;5013300;28;20159;-59
2022/01/24 02:27:07;;;;;;;21.30;12.85;;;5.80;99.90;;;;;;5013609;28;20025;-60
2022/01/24 02:32:08;;;;;;;21.23;12.07;;;5.70;99.90;;;;;;5020799;28;20057;-62
2022/01/24 02:34:37;;;;;;;22.58;13.05;;;5.70;99.90;;;;;;5021432;28;20126;-59
2022/01/24 02:37:16;;;;;;;20.25;12.20;;;5.70;99.90;;;;;;5010266;28;20029;-59
2022/01/24 02:40:03;;;;;;;24.25;12.30;;;5.70;99.90;;;;;;5020943;28;20041;-61
2022/01/24 02:53:34;;;;;;;18.17;11.15;;;5.60;99.90;;;;;;5028803;28;20037;-58
2022/01/24 02:56:00;;;;;;;21.52;13.40;;;5.60;99.90;;;;;;5017446;28;20081;-59
2022/01/24 02:58:26;;;;;;;20.00;12.32;;;5.50;99.90;;;;;;5028391;28;20498;-60
2022/01/24 03:00:53;;;;;;;18.70;12.13;;;5.60;99.90;;;;;;5019216;28;20038;-62
2022/01/24 03:03:19;;;;;;;19.00;11.85;;;5.60;99.90;;;;;;5027090;28;20025;-62
2022/01/24 03:05:44;;;;;;;21.55;12.80;;;5.60;99.90;;;;;;5020652;28;20030;-57
2022/01/24 03:08:12;;;;;;;20.23;11.60;;;5.60;99.90;;;;;;5026034;28;20029;-59
2022/01/24 03:10:44;;;;;;;19.60;11.98;;;5.60;99.90;;;;;;5019661;28;20037;-61
2022/01/24 03:15:41;;;;;;;17.00;10.90;;;5.60;99.90;;;;;;5016804;28;20029;-59
2022/01/24 03:18:07;;;;;;;17.10;11.00;;;5.60;99.90;;;;;;5025125;28;20100;-58
2022/01/24 03:20:33;;;;;;;21.67;12.13;;;5.60;99.90;;;;;;5019624;28;20461;-59
2022/01/24 03:23:00;;;;;;;17.40;10.38;;;5.60;99.90;;;;;;5019797;28;20017;-60
2022/01/24 03:25:26;;;;;;;17.27;10.90;;;5.60;99.90;;;;;;5002728;28;20125;-61
2022/01/24 03:27:52;;;;;;;17.65;11.27;;;5.60;99.90;;;;;;5020670;28;20033;-60
2022/01/24 03:30:18;;;;;;;16.15;9.82;;;5.60;99.90;;;;;;5020832;28;20453;-60
2022/01/24 03:32:43;;;;;;;16.15;9.95;;;5.60;99.90;;;;;;5015687;28;20062;-59
2022/01/24 03:35:09;;;;;;;18.27;10.80;;;5.60;99.90;;;;;;5008412;28;20380;-61
2022/01/24 03:37:35;;;;;;;15.05;9.07;;;5.60;99.90;;;;;;4999849;28;20117;-59
2022/01/24 03:40:04;;;;;;;16.35;10.48;;;5.50;99.90;;;;;;5016979;28;20033;-60
2022/01/24 03:42:31;;;;;;;15.90;10.15;;;5.50;99.90;;;;;;5025781;28;20029;-59
2022/01/24 03:45:00;;;;;;;15.05;9.20;;;5.60;99.90;;;;;;5017106;28;20030;-59
2022/01/24 03:47:42;;;;;;;13.85;9.43;;;5.60;99.90;;;;;;5016620;28;20061;-62
2022/01/24 03:50:13;;;;;;;14.77;9.13;;;5.50;99.90;;;;;;5025181;28;20033;-61
2022/01/24 03:52:39;;;;;;;15.63;9.02;;;5.40;99.90;;;;;;5017543;28;20385;-59
2022/01/24 03:55:06;;;;;;;14.75;9.68;;;5.40;99.90;;;;;;5010359;28;20152;-57
2022/01/24 03:57:32;;;;;;;15.85;10.25;;;5.40;99.90;;;;;;5020890;28;20483;-59
2022/01/24 03:59:57;;;;;;;17.48;9.82;;;5.40;99.90;;;;;;5026686;28;20030;-59
2022/01/24 04:02:25;;;;;;;17.45;10.35;;;5.30;99.90;;;;;;5022198;28;20095;-61
2022/01/24 04:04:51;;;;;;;17.75;10.68;;;5.30;99.90;;;;;;5025910;28;20471;-60
2022/01/24 04:07:17;;;;;;;17.38;10.43;;;5.30;99.90;;;;;;5006384;28;20046;-59
2022/01/24 04:09:43;;;;;;;19.30;10.45;;;5.30;99.90;;;;;;5020736;28;20044;-59
2022/01/24 04:12:10;;;;;;;26.55;11.27;;;5.30;99.90;;;;;;5020165;28;20049;-59
2022/01/24 04:14:42;;;;;;;21.33;11.50;;;5.20;99.90;;;;;;5011406;28;20026;-59
2022/01/24 04:22:14;;;;;;;20.73;11.40;;;5.20;99.90;;;;;;5019697;28;20117;-59
2022/01/24 04:24:41;;;;;;;18.50;11.13;;;5.20;99.90;;;;;;4992738;28;20274;-60
2022/01/24 04:27:07;;;;;;;16.85;10.90;;;5.30;99.90;;;;;;5020393;28;20045;-62
2022/01/24 04:29:33;;;;;;;20.95;11.43;;;5.20;99.90;;;;;;5031710;28;20040;-62
2022/01/24 04:31:59;;;;;;;18.85;11.43;;;5.20;99.90;;;;;;5018730;28;20041;-60
2022/01/24 04:34:25;;;;;;;22.65;12.05;;;5.20;99.90;;;;;;5030182;28;20490;-61
2022/01/24 04:36:50;;;;;;;19.98;12.80;;;5.20;99.90;;;;;;5021288;28;20030;-58
2022/01/24 04:39:19;;;;;;;23.17;13.05;;;5.20;99.90;;;;;;5020800;28;20029;-62
2022/01/24 04:41:48;;;;;;;21.75;13.30;;;5.20;99.90;;;;;;5023935;28;20112;-61
2022/01/24 04:52:32;;;;;;;22.38;13.88;;;5.10;99.90;;;;;;5027107;28;20076;-57
2022/01/24 04:54:58;;;;;;;28.67;14.60;;;5.10;99.90;;;;;;5019661;28;20034;-57
2022/01/24 04:57:27;;;;;;;23.92;14.52;;;5.10;99.90;;;;;;5012377;28;20026;-57
2022/01/24 04:59:55;;;;;;;23.05;14.00;;;5.10;99.90;;;;;;5003597;28;20084;-58
2022/01/24 05:02:23;;;;;;;22.27;13.73;;;5.20;99.90;;;;;;5029236;28;20086;-59
2022/01/24 05:04:49;;;;;;;21.80;13.35;;;5.20;99.90;;;;;;5018101;28;20117;-57
2022/01/24 05:07:16;;;;;;;20.42;12.85;;;5.10;99.90;;;;;;5014179;28;20034;-57
2022/01/24 05:09:47;;;;;;;24.38;14.70;;;5.20;99.90;;;;;;5000461;28;20026;-63
2022/01/24 05:21:23;;;;;;;26.25;14.73;;;5.20;99.90;;;;;;5027559;28;20059;-59
2022/01/24 05:25:52;;;;;;;23.95;14.40;;;5.20;99.90;;;;;;5013095;28;20026;-59
2022/01/24 05:28:18;;;;;;;26.38;14.90;;;5.20;99.90;;;;;;5027078;28;20408;-60
2022/01/24 05:30:44;;;;;;;25.52;15.10;;;5.20;99.90;;;;;;5018435;28;20399;-62
2022/01/24 05:33:10;;;;;;;30.52;17.30;;;5.20;99.90;;;;;;5017327;28;20032;-57
2022/01/24 05:35:36;;;;;;;25.15;15.98;;;5.20;99.90;;;;;;5022404;28;20040;-58
2022/01/24 05:38:02;;;;;;;31.83;16.63;;;5.20;99.90;;;;;;5021670;28;20124;-57
2022/01/24 05:40:28;;;;;;;36.40;16.80;;;5.20;99.90;;;;;;5004442;28;20033;-57
2022/01/24 05:42:53;;;;;;;30.23;16.95;;;5.20;99.90;;;;;;5021599;28;20506;-59
2022/01/24 05:45:19;;;;;;;29.90;16.65;;;5.20;99.90;;;;;;5017183;28;20033;-57
2022/01/24 05:47:45;;;;;;;30.58;17.67;;;5.20;99.90;;;;;;5021540;28;20473;-60
2022/01/24 05:50:10;;;;;;;29.30;17.42;;;5.20;99.90;;;;;;5017239;28;20112;-58
2022/01/24 05:52:36;;;;;;;30.70;16.92;;;5.20;99.90;;;;;;5021263;28;20471;-61
2022/01/24 05:55:03;;;;;;;29.55;17.30;;;5.20;99.90;;;;;;5027062;28;20033;-57
2022/01/24 05:57:29;;;;;;;36.72;19.55;;;5.30;99.90;;;;;;5021223;28;20060;-56
2022/01/24 05:59:55;;;;;;;34.58;18.98;;;5.30;99.90;;;;;;5022133;28;20030;-58
2022/01/24 06:02:20;;;;;;;33.65;19.70;;;5.30;99.90;;;;;;5018655;28;20071;-61
2022/01/24 06:04:46;;;;;;;34.25;18.92;;;5.30;99.90;;;;;;5006456;28;20033;-57
2022/01/24 06:07:12;;;;;;;34.20;19.27;;;5.30;99.90;;;;;;5018749;28;20519;-54
2022/01/24 06:09:38;;;;;;;32.88;18.65;;;5.30;99.90;;;;;;5026472;28;20048;-55
2022/01/24 06:12:04;;;;;;;37.38;19.40;;;5.30;99.90;;;;;;4999071;28;20192;-60
2022/01/24 06:14:30;;;;;;;33.13;18.08;;;5.30;99.90;;;;;;5027246;28;20057;-58
2022/01/24 06:16:55;;;;;;;35.38;19.75;;;5.30;99.90;;;;;;5017714;28;20091;-60
2022/01/24 06:19:21;;;;;;;31.90;18.33;;;5.30;99.90;;;;;;5027943;28;20088;-58
2022/01/24 06:21:47;;;;;;;37.08;19.77;;;5.30;99.90;;;;;;5017095;28;20034;-59
2022/01/24 06:24:12;;;;;;;35.47;17.90;;;5.30;99.90;;;;;;5026725;28;20042;-57
2022/01/24 06:26:39;;;;;;;35.97;18.80;;;5.30;99.90;;;;;;5019729;28;20026;-58
2022/01/24 06:29:05;;;;;;;35.20;18.60;;;5.30;99.90;;;;;;5025024;28;20033;-58
2022/01/24 06:31:30;;;;;;;35.25;19.60;;;5.30;99.90;;;;;;5016019;28;20083;-60
2022/01/24 06:33:56;;;;;;;33.42;19.17;;;5.30;99.90;;;;;;5014201;28;20035;-56
2022/01/24 06:36:22;;;;;;;36.80;20.23;;;5.30;99.90;;;;;;4994955;28;20439;-56
2022/01/24 06:38:47;;;;;;;37.38;20.50;;;5.30;99.90;;;;;;5029192;28;20025;-62
2022/01/24 06:41:20;;;;;;;36.80;20.00;;;5.30;99.90;;;;;;5020566;28;20056;-59
2022/01/24 06:43:45;;;;;;;34.42;19.05;;;5.30;99.90;;;;;;5012363;28;20475;-63
2022/01/24 06:46:11;;;;;;;38.47;20.85;;;5.30;99.90;;;;;;5019617;28;20116;-59
2022/01/24 06:48:36;;;;;;;37.75;20.58;;;5.30;99.90;;;;;;5021790;28;20044;-62
2022/01/24 06:51:04;;;;;;;37.45;21.83;;;5.30;99.90;;;;;;5020476;28;20034;-59
2022/01/24 06:53:30;;;;;;;37.53;21.02;;;5.30;99.90;;;;;;5020431;28;20336;-57
2022/01/24 06:55:56;;;;;;;38.30;21.40;;;5.30;99.90;;;;;;5003054;28;20030;-60
2022/01/24 06:58:22;;;;;;;37.03;20.27;;;5.30;99.90;;;;;;5012577;28;20435;-60
2022/01/24 07:00:47;;;;;;;36.42;21.40;;;5.30;99.90;;;;;;5022257;28;20046;-58
2022/01/24 07:03:13;;;;;;;43.47;22.08;;;5.30;99.90;;;;;;5008279;28;20452;-61
2022/01/24 07:05:39;;;;;;;43.38;22.45;;;5.30;99.90;;;;;;5009419;28;20209;-59
2022/01/24 07:08:04;;;;;;;38.17;21.70;;;5.30;99.90;;;;;;5008168;28;20103;-65
2022/01/24 07:10:30;;;;;;;38.90;22.00;;;5.30;99.90;;;;;;5017619;28;20045;-62
2022/01/24 07:12:56;;;;;;;43.92;22.33;;;5.40;99.90;;;;;;5008586;28;20026;-61
2022/01/24 07:15:30;;;;;;;36.55;20.65;;;5.30;99.90;;;;;;5016652;28;20061;-59
2022/01/24 07:18:15;;;;;;;40.08;22.20;;;5.30;99.90;;;;;;5018486;28;20136;-64
2022/01/24 07:20:40;;;;;;;39.88;21.02;;;5.40;99.90;;;;;;5010026;28;20026;-60
2022/01/24 07:23:06;;;;;;;46.13;23.92;;;5.30;99.90;;;;;;5016800;28;20034;-59
2022/01/24 07:25:32;;;;;;;40.25;22.30;;;5.30;99.90;;;;;;5022355;28;20029;-58
2022/01/24 07:27:58;;;;;;;42.97;22.58;;;5.30;99.90;;;;;;5009366;28;20038;-59
2022/01/24 07:30:23;;;;;;;43.78;23.33;;;5.30;99.90;;;;;;5023546;28;20396;-60
2022/01/24 07:32:49;;;;;;;45.03;23.30;;;5.30;99.90;;;;;;5013564;28;20068;-60
2022/01/24 07:35:15;;;;;;;41.75;22.95;;;5.40;99.90;;;;;;5015367;28;20034;-60
2022/01/24 07:37:41;;;;;;;41.92;22.30;;;5.30;99.90;;;;;;5016808;28;20029;-58
2022/01/24 07:40:09;;;;;;;52.05;25.40;;;5.30;99.90;;;;;;5011744;28;20103;-62
2022/01/24 07:45:20;;;;;;;45.63;24.45;;;5.20;99.90;;;;;;5012572;28;20026;-59
2022/01/24 07:47:48;;;;;;;48.78;24.88;;;5.30;99.90;;;;;;5019196;28;20480;-61
2022/01/24 07:50:16;;;;;;;47.85;25.38;;;5.30;99.90;;;;;;5026892;28;20088;-59
2022/01/24 07:52:42;;;;;;;51.33;27.02;;;5.30;99.90;;;;;;5019189;28;20030;-60
2022/01/24 07:55:08;;;;;;;51.25;25.17;;;5.30;99.90;;;;;;5011456;28;20033;-59
2022/01/24 07:57:33;;;;;;;49.97;27.13;;;5.30;99.90;;;;;;5005859;28;20416;-62
2022/01/24 07:59:59;;;;;;;57.90;28.23;;;5.30;99.90;;;;;;5021751;28;20045;-61
2022/01/24 08:02:24;;;;;;;55.92;28.35;;;5.30;99.90;;;;;;5006436;28;20029;-62
2022/01/24 08:04:50;;;;;;;59.55;28.80;;;5.30;99.90;;;;;;5014105;28;20040;-64
2022/01/24 08:07:15;;;;;;;58.97;27.33;;;5.30;99.90;;;;;;5014136;28;20440;-64
2022/01/24 08:09:41;;;;;;;63.25;29.92;;;5.30;99.90;;;;;;5014253;28;20030;-50
2022/01/24 08:12:07;;;;;;;58.95;28.42;;;5.40;99.90;;;;;;5027786;28;20867;-60
2022/01/24 08:14:33;;;;;;;60.75;29.08;;;5.50;99.90;;;;;;5019194;28;20029;-50
2022/01/24 08:17:00;;;;;;;62.35;29.33;;;5.50;99.90;;;;;;5023590;28;20509;-49
2022/01/24 08:19:26;;;;;;;65.93;29.38;;;5.60;99.90;;;;;;5021457;28;20083;-52
2022/01/24 08:21:51;;;;;;;62.58;30.25;;;5.60;99.90;;;;;;5031148;28;20065;-45
2022/01/24 08:24:17;;;;;;;65.25;30.95;;;5.60;99.90;;;;;;5023300;28;20525;-48
2022/01/24 08:26:43;;;;;;;64.32;32.45;;;5.60;99.90;;;;;;5031342;28;20037;-65
2022/01/24 08:29:08;;;;;;;63.22;30.58;;;5.50;99.90;;;;;;5021329;28;20091;-65
2022/01/24 08:31:36;;;;;;;64.35;32.25;;;5.50;99.90;;;;;;5020182;28;20026;-62
2022/01/24 08:34:02;;;;;;;70.28;33.13;;;5.50;99.90;;;;;;5021508;28;20052;-60
2022/01/24 08:36:28;;;;;;;65.13;31.77;;;5.50;99.90;;;;;;4985858;28;20392;-63
2022/01/24 08:38:57;;;;;;;69.03;33.75;;;5.50;99.90;;;;;;5020935;28;20028;-64
2022/01/24 08:41:38;;;;;;;72.65;34.50;;;5.50;99.90;;;;;;5008867;28;20117;-61
2022/01/24 08:46:56;;;;;;;74.47;35.60;;;5.50;99.90;;;;;;4996717;28;20038;-59
2022/01/24 08:49:22;;;;;;;76.30;35.97;;;5.60;99.90;;;;;;5003681;28;20349;-63
2022/01/24 08:51:48;;;;;;;75.50;37.08;;;5.50;99.90;;;;;;5027531;28;20036;-60
2022/01/24 08:54:13;;;;;;;76.35;36.90;;;5.50;99.90;;;;;;5022578;28;20411;-63
2022/01/24 08:56:39;;;;;;;76.93;36.65;;;5.50;99.90;;;;;;5023189;28;20041;-61
2022/01/24 08:59:06;;;;;;;79.80;37.40;;;5.60;99.90;;;;;;5019164;28;20539;-64
2022/01/24 09:01:33;;;;;;;82.07;37.42;;;5.60;99.90;;;;;;5030315;28;20025;-61
2022/01/24 09:03:58;;;;;;;74.18;36.67;;;5.60;99.90;;;;;;5019137;28;20075;-59
2022/01/24 09:06:24;;;;;;;84.65;38.72;;;5.60;99.90;;;;;;5030342;28;20025;-58
2022/01/24 09:08:57;;;;;;;79.85;37.95;;;5.60;99.90;;;;;;5011388;28;20025;-58
2022/01/24 09:11:24;;;;;;;84.22;39.38;;;5.60;99.90;;;;;;5030246;28;20116;-56
2022/01/24 09:13:50;;;;;;;83.32;39.60;;;5.60;99.90;;;;;;5022210;28;20041;-63
2022/01/24 09:16:16;;;;;;;87.43;41.10;;;5.60;99.90;;;;;;5028596;28;20112;-59
2022/01/24 09:18:41;;;;;;;79.55;37.13;;;5.70;99.90;;;;;;5023625;28;20026;-66
2022/01/24 09:21:07;;;;;;;91.07;41.60;;;5.70;99.90;;;;;;5022471;28;20470;-58
2022/01/24 09:23:33;;;;;;;81.10;37.25;;;5.70;99.90;;;;;;5021865;28;20115;-57
2022/01/24 09:25:58;;;;;;;80.15;37.60;;;5.70;99.90;;;;;;5020224;28;20061;-60
2022/01/24 09:28:24;;;;;;;85.32;40.83;;;5.70;99.90;;;;;;4998686;28;20033;-57
2022/01/24 09:30:51;;;;;;;83.22;37.97;;;5.70;99.90;;;;;;5019390;28;20026;-62
2022/01/24 09:33:17;;;;;;;84.10;41.20;;;5.70;99.90;;;;;;5010432;28;20026;-58
2022/01/24 09:35:43;;;;;;;84.68;38.67;;;5.70;99.90;;;;;;5017407;28;20388;-61
2022/01/24 09:38:09;;;;;;;79.95;39.05;;;5.70;99.90;;;;;;5010812;28;20064;-66
2022/01/24 09:40:36;;;;;;;78.80;38.17;;;5.70;99.90;;;;;;5022720;28;20057;-64
2022/01/24 09:43:02;;;;;;;80.68;38.20;;;5.70;99.90;;;;;;5018585;28;20036;-61
2022/01/24 09:45:29;;;;;;;86.00;38.83;;;5.70;99.90;;;;;;5012415;28;20057;-61
2022/01/24 09:47:56;;;;;;;75.40;35.88;;;5.60;99.90;;;;;;5021605;28;20483;-61
2022/01/24 09:50:22;;;;;;;81.80;36.67;;;5.60;99.90;;;;;;5023095;28;20033;-62
2022/01/24 09:52:49;;;;;;;79.95;36.70;;;5.60;99.90;;;;;;5017200;28;20180;-62
2022/01/24 09:55:18;;;;;;;72.85;34.55;;;5.60;99.90;;;;;;5023023;28;20095;-64
2022/01/24 09:57:47;;;;;;;76.18;34.45;;;5.70;99.90;;;;;;5023314;28;20030;-59
2022/01/24 10:00:15;;;;;;;73.03;33.78;;;5.70;99.90;;;;;;5026918;28;20029;-63
2022/01/24 10:02:44;;;;;;;69.57;32.30;;;5.70;99.90;;;;;;5034559;28;20122;-64
2022/01/24 10:05:12;;;;;;;72.03;33.92;;;5.70;99.90;;;;;;5032798;28;20041;-63
2022/01/24 10:07:39;;;;;;;77.30;33.67;;;5.70;99.90;;;;;;5026207;28;20110;-59
2022/01/24 10:10:05;;;;;;;73.45;32.55;;;5.70;99.90;;;;;;5022994;28;20399;-59
2022/01/24 10:16:24;;;;;;;71.22;31.38;;;5.70;99.90;;;;;;5025416;28;20056;-58
2022/01/24 10:18:02;;;;;;;71.57;32.75;;;5.70;99.90;;;;;;5024244;28;20486;-65
2022/01/24 10:20:37;;;;;;;75.32;32.85;;;5.70;99.90;;;;;;4987802;28;20037;-63
2022/01/24 10:23:43;;;;;;;70.85;31.52;;;5.70;99.90;;;;;;5017470;28;20314;-63
2022/01/24 10:26:08;;;;;;;72.75;33.22;;;5.70;99.90;;;;;;4956419;28;20466;-59
2022/01/24 10:28:39;;;;;;;67.53;30.42;;;5.70;99.90;;;;;;5011151;28;20046;-60
2022/01/24 10:31:23;;;;;;;63.05;29.30;;;5.70;99.90;;;;;;5010401;28;20025;-59
2022/01/24 10:33:50;;;;;;;69.18;29.90;;;5.70;99.90;;;;;;5016671;28;20033;-61
2022/01/24 10:36:54;;;;;;;68.22;30.45;;;5.70;99.90;;;;;;5010349;28;20105;-61
2022/01/24 10:45:22;;;;;;;57.88;27.42;;;5.70;99.90;;;;;;4949516;28;20028;-61
2022/01/24 10:47:52;;;;;;;62.00;26.60;;;5.70;99.90;;;;;;4992644;28;20046;-63
2022/01/24 10:50:30;;;;;;;58.30;27.98;;;5.70;99.90;;;;;;5001434;28;20034;-62
2022/01/24 10:52:58;;;;;;;63.17;27.98;;;5.70;99.90;;;;;;5007262;28;20427;-63
2022/01/24 10:55:28;;;;;;;60.33;28.10;;;5.70;99.90;;;;;;5021985;28;20480;-61
2022/01/24 10:58:17;;;;;;;61.42;28.67;;;5.70;99.90;;;;;;5022299;28;20399;-61
2022/01/24 11:00:45;;;;;;;60.28;28.15;;;5.70;99.90;;;;;;5015134;28;20432;-60
2022/01/24 11:03:16;;;;;;;64.65;28.83;;;5.70;99.90;;;;;;5024975;28;20115;-64
2022/01/24 11:05:43;;;;;;;68.63;28.73;;;5.80;99.90;;;;;;5002621;28;20057;-65
2022/01/24 11:08:12;;;;;;;64.60;29.52;;;5.80;99.90;;;;;;5020637;28;20047;-64
2022/01/24 11:10:40;;;;;;;68.47;29.58;;;5.80;99.90;;;;;;5019694;28;20590;-62
2022/01/24 11:13:06;;;;;;;66.82;28.73;;;5.70;99.90;;;;;;5020509;28;20540;-60
2022/01/24 11:15:34;;;;;;;66.50;29.25;;;5.70;99.90;;;;;;5031422;28;20127;-62
2022/01/24 11:18:01;;;;;;;70.75;30.00;;;5.70;99.90;;;;;;5023442;28;20116;-57
2022/01/24 11:20:31;;;;;;;64.80;30.40;;;5.70;99.90;;;;;;5014565;28;20030;-59
2022/01/24 11:23:01;;;;;;;62.30;29.20;;;5.70;99.90;;;;;;5018785;28;20135;-64
2022/01/24 11:25:29;;;;;;;68.80;29.90;;;5.70;99.90;;;;;;5023854;28;20575;-63
2022/01/24 11:27:54;;;;;;;73.28;32.05;;;5.70;99.90;;;;;;5014614;28;20478;-59
2022/01/24 11:30:40;;;;;;;71.15;31.52;;;5.70;99.90;;;;;;5006581;28;20026;-60
2022/01/24 11:33:16;;;;;;;75.10;33.95;;;5.70;99.90;;;;;;4998952;28;20048;-60
2022/01/24 11:35:45;;;;;;;78.55;32.25;;;5.70;99.90;;;;;;5018075;28;20026;-62
2022/01/24 11:38:28;;;;;;;76.03;33.67;;;5.70;99.90;;;;;;5009365;28;20018;-63
2022/01/24 11:41:25;;;;;;;85.05;35.45;;;5.70;99.90;;;;;;4997671;28;20033;-60
2022/01/24 11:43:55;;;;;;;73.07;33.35;;;5.70;99.90;;;;;;5018495;28;20028;-60
2022/01/24 11:46:40;;;;;;;71.57;32.60;;;5.70;99.90;;;;;;5021213;28;20033;-61
2022/01/24 11:49:13;;;;;;;82.18;34.40;;;5.70;99.90;;;;;;5028463;28;20040;-59
2022/01/24 11:51:44;;;;;;;76.32;34.30;;;5.70;99.90;;;;;;5019454;28;20037;-63
2022/01/24 11:57:47;;;;;;;93.32;37.38;;;5.70;99.90;;;;;;4996460;28;20049;-64
2022/01/24 12:00:44;;;;;;;87.03;37.95;;;5.70;99.90;;;;;;5022894;28;20296;-59
2022/01/24 12:03:28;;;;;;;93.88;39.22;;;5.80;99.90;;;;;;5021181;28;20120;-60
2022/01/24 12:06:04;;;;;;;92.45;37.97;;;5.70;99.90;;;;;;5025202;28;20561;-61
2022/01/24 12:08:34;;;;;;;98.00;41.65;;;5.70;99.90;;;;;;5020542;28;20045;-61
2022/01/24 12:11:34;;;;;;;87.82;39.83;;;5.70;99.90;;;;;;5016433;28;20030;-60
2022/01/24 12:14:12;;;;;;;97.63;41.88;;;5.70;99.90;;;;;;5007060;28;20491;-64
2022/01/24 12:16:45;;;;;;;96.63;42.78;;;5.70;99.90;;;;;;5025772;28;20026;-64
2022/01/24 12:19:12;;;;;;;97.13;40.08;;;5.70;99.90;;;;;;5029457;28;20032;-60
2022/01/24 12:21:39;;;;;;;100.32;43.38;;;5.70;99.90;;;;;;5025598;28;20041;-61
2022/01/24 12:24:14;;;;;;;95.43;41.90;;;5.80;99.90;;;;;;5019344;28;20570;-61
2022/01/24 12:26:47;;;;;;;103.82;42.55;;;5.70;99.90;;;;;;5009060;28;20053;-64
2022/01/24 12:29:18;;;;;;;103.13;46.25;;;5.70;99.90;;;;;;5018024;28;20030;-64
2022/01/24 12:31:52;;;;;;;106.95;43.97;;;5.80;99.90;;;;;;5014966;28;20034;-60
2022/01/24 12:34:50;;;;;;;105.90;45.03;;;5.80;99.90;;;;;;5023747;28;20276;-60
2022/01/24 12:37:29;;;;;;;108.00;46.72;;;5.70;99.90;;;;;;4989630;28;20042;-60
2022/01/24 12:40:02;;;;;;;109.07;46.55;;;5.70;99.90;;;;;;5008939;28;20033;-61
2022/01/24 12:42:57;;;;;;;111.93;48.00;;;5.60;99.90;;;;;;5020268;28;20099;-59
2022/01/24 12:48:16;;;;;;;114.03;47.92;;;5.70;99.90;;;;;;5016820;28;20448;-62
2022/01/24 12:50:47;;;;;;;103.95;44.97;;;5.60;99.90;;;;;;5007404;28;20029;-64
2022/01/24 12:53:14;;;;;;;113.95;48.92;;;5.60;99.90;;;;;;5022416;28;20103;-64
2022/01/24 12:55:41;;;;;;;108.93;47.85;;;5.60;99.90;;;;;;5023074;28;20021;-62
2022/01/24 12:58:07;;;;;;;111.55;46.85;;;5.60;99.90;;;;;;5016287;28;20084;-65
2022/01/24 13:00:33;;;;;;;114.70;46.92;;;5.60;99.90;;;;;;5018365;28;20022;-64
2022/01/24 13:02:58;;;;;;;96.13;41.22;;;5.60;99.90;;;;;;5018811;28;20032;-64
2022/01/24 13:05:26;;;;;;;92.20;41.15;;;5.60;99.90;;;;;;5010764;28;21295;-63
2022/01/24 13:07:53;;;;;;;93.85;40.92;;;5.50;99.90;;;;;;5018880;28;20042;-65
2022/01/24 13:10:23;;;;;;;97.93;42.25;;;5.50;99.90;;;;;;5026704;28;20029;-63
2022/01/24 13:13:06;;;;;;;93.80;39.83;;;5.50;99.90;;;;;;5018059;28;20048;-63
2022/01/24 13:21:26;;;;;;;101.10;40.88;;;5.50;99.90;;;;;;5023241;28;20033;-64
2022/01/24 13:23:57;;;;;;;85.85;36.78;;;5.50;99.90;;;;;;5021786;28;20384;-64
2022/01/24 13:26:23;;;;;;;87.90;38.87;;;5.50;99.90;;;;;;5023162;28;20029;-63
2022/01/24 13:28:49;;;;;;;87.55;40.05;;;5.40;99.90;;;;;;5003780;28;20053;-63
2022/01/24 13:31:15;;;;;;;82.70;38.25;;;5.40;99.90;;;;;;5018116;28;20033;-63
2022/01/24 13:33:45;;;;;;;88.00;38.33;;;5.40;99.90;;;;;;5022523;28;20456;-62
2022/01/24 13:36:12;;;;;;;97.57;41.35;;;5.50;99.90;;;;;;5026624;28;20034;-64
2022/01/24 13:38:51;;;;;;;90.85;40.42;;;5.50;99.90;;;;;;5017999;28;20511;-64
2022/01/24 13:41:24;;;;;;;95.15;41.90;;;5.50;99.90;;;;;;5018368;28;20033;-63
2022/01/24 13:44:01;;;;;;;92.95;40.85;;;5.50;99.90;;;;;;5023246;28;20029;-63
2022/01/24 13:46:38;;;;;;;92.30;41.80;;;5.40;99.90;;;;;;5020673;28;20052;-64
2022/01/24 13:49:06;;;;;;;88.68;41.08;;;5.50;99.90;;;;;;5025649;28;20183;-63
2022/01/24 13:51:45;;;;;;;102.75;42.70;;;5.50;99.90;;;;;;5020624;28;20034;-65
2022/01/24 13:54:29;;;;;;;89.60;40.85;;;5.50;99.90;;;;;;5027240;28;20041;-62
2022/01/24 13:56:57;;;;;;;100.93;43.30;;;5.50;99.90;;;;;;5017955;28;20049;-64
2022/01/24 13:59:25;;;;;;;94.75;40.80;;;5.50;99.90;;;;;;5028127;28;20029;-63
2022/01/24 14:02:12;;;;;;;99.82;44.42;;;5.50;99.90;;;;;;5018488;28;20033;-65
2022/01/24 14:04:40;;;;;;;97.75;42.22;;;5.50;99.90;;;;;;4994526;28;20214;-65
2022/01/24 14:07:23;;;;;;;93.88;43.47;;;5.50;99.90;;;;;;5020396;28;20038;-64
2022/01/24 14:09:57;;;;;;;96.07;43.08;;;5.60;99.90;;;;;;4993475;28;20436;-64
2022/01/24 14:12:36;;;;;;;84.15;38.05;;;5.60;99.90;;;;;;5019049;28;20113;-64
2022/01/24 14:15:09;;;;;;;92.93;40.63;;;5.50;99.90;;;;;;5028347;28;20432;-63
2022/01/24 14:18:18;;;;;;;94.07;41.13;;;5.50;99.90;;;;;;5013289;28;20054;-64
2022/01/24 14:20:39;;;;;;;93.07;40.47;;;5.50;99.90;;;;;;4998763;28;20052;-63
2022/01/24 14:23:18;;;;;;;88.25;41.47;;;5.50;99.90;;;;;;5010600;28;20463;-62
2022/01/24 14:25:44;;;;;;;89.90;39.75;;;5.40;99.90;;;;;;5015718;28;20113;-63
2022/01/24 14:28:10;;;;;;;94.30;42.30;;;5.40;99.90;;;;;;5021257;28;20113;-63
2022/01/24 14:30:41;;;;;;;98.78;43.15;;;5.40;99.90;;;;;;5020340;28;20044;-64
2022/01/24 14:33:12;;;;;;;92.63;40.97;;;5.40;99.90;;;;;;5007259;28;20092;-64
2022/01/24 14:36:08;;;;;;;81.97;38.30;;;5.40;99.90;;;;;;5019803;28;20109;-65
2022/01/24 14:38:44;;;;;;;80.38;38.35;;;5.40;99.90;;;;;;5013146;28;20364;-64
2022/01/24 14:41:38;;;;;;;82.78;37.20;;;5.40;99.90;;;;;;5008446;28;20404;-64
2022/01/24 14:46:54;;;;;;;78.93;35.47;;;5.40;99.90;;;;;;5011805;28;20056;-63
2022/01/24 14:49:23;;;;;;;87.65;39.97;;;5.40;99.90;;;;;;4992700;28;20120;-64
2022/01/24 14:51:55;;;;;;;85.05;40.20;;;5.40;99.90;;;;;;5019745;28;20486;-65
2022/01/24 14:54:23;;;;;;;81.88;37.50;;;5.40;99.90;;;;;;5022010;28;20119;-62